Flight Track Log - Related Links

Times and Time Zones

All times are in EDT time to prevent confusion due to time zone crossing. See the AAL832 flight status page for this flight to view local times or setup timezone preferences in your user account.

Time Position Orientation Groundspeed Altitude Reporting Facility
EDT Latitude Longitude Course Direction KTS MPH feet Rate Location/Type
Tue 12:11:57 PM 33.9333 -118.4358 59° Northeast 170 196 2,300  Level Los Center
Tue 12:13:00 PM 34.1279 -118.0775 59° Northeast  Level FlightAware
Tue 12:13:00 PM 33.8989 -118.5383 248° West 249 287 6,600  Level Los Center
Tue 12:14:00 PM 34.1937 -117.9459 59° Northeast  Level FlightAware
Tue 12:14:02 PM 33.8483 -118.5008 148° Southeast 274 315 9,400  Level Los Center
Tue 12:15:00 PM 34.2651 -117.8190 51° Northeast  Level FlightAware
Tue 12:15:16 PM 33.9028 -118.4458 40° Northeast 278 320 11,800  Level Los Center
Tue 12:16:00 PM 34.3342 -117.6944 55° Northeast  Level FlightAware
Tue 12:16:18 PM 33.9753 -118.3625 44° Northeast 305 351 15,000  Level Los Center
Tue 12:17:00 PM 34.4055 -117.5723 59° Northeast  Level FlightAware
Tue 12:17:32 PM 34.0269 -118.2700 56° Northeast 328 377 17,500  Level Los Center
Tue 12:18:35 PM 34.0978 -118.1444 56° Northeast 377 434 19,800 2,544 Climbing Los Center
Tue 12:19:37 PM 34.1714 -118.0128 56° Northeast 394 453 22,800 2,565 Climbing Los Center
Tue 12:20:39 PM 34.2344 -117.9006 56° Northeast 400 460 25,100 2,081 Climbing Los Center
Tue 12:21:41 PM 34.3031 -117.7903 53° Northeast 406 467 27,100 1,935 Climbing Los Center
Tue 12:22:43 PM 34.3792 -117.6831 49° Northeast 413 475 29,100 1,839 Climbing Los Center
Tue 12:23:45 PM 34.4564 -117.5753 49° Northeast 422 486 30,900 1,548 Climbing Los Center
Tue 12:24:47 PM 34.5344 -117.4628 50° Northeast 432 497 32,300 1,270 Climbing Los Center
Tue 12:26:02 PM 34.6300 -117.3242 50° Northeast 443 510 33,800 1,489 Climbing Los Center
Tue 12:27:04 PM 34.7275 -117.1806 50° Northeast 454 522 35,700 1,548 Climbing Los Center
Tue 12:28:06 PM 34.8092 -117.0650 49° Northeast 456 525 37,000 1,258 Climbing Los Center
Tue 12:29:08 PM 34.8878 -116.9492 50° Northeast 448 516 38,300 968 Climbing Los Center
Tue 12:30:10 PM 34.9700 -116.8311 50° Northeast 449 517 39,000 339 Climbing Los Center
Tue 12:31:12 PM 35.0494 -116.7122 51° Northeast 451 519 39,000  Level Los Center
Tue 12:32:14 PM 35.1453 -116.5700 50° Northeast 451 519 39,000  Level Los Center
Tue 12:33:16 PM 35.2297 -116.4544 48° Northeast 446 513 39,000  Level Los Center
Tue 12:34:18 PM 35.3208 -116.3503 43° Northeast 447 514 39,000  Level Los Center
Tue 12:35:20 PM 35.4139 -116.2483 42° Northeast 449 517 39,000  Level Los Center
Tue 12:36:22 PM 35.5058 -116.1458 42° Northeast 448 516 39,000  Level Los Center
Tue 12:37:24 PM 35.5975 -116.0411 43° Northeast 449 517 39,000  Level Los Center
Tue 12:38:26 PM 35.6867 -115.8914 54° Northeast 458 527 39,000  Level Los Center
Tue 12:39:28 PM 35.7572 -115.7592 57° Northeast 454 522 39,000  Level Los Center
Tue 12:40:30 PM 35.8283 -115.6300 56° Northeast 457 526 39,000  Level Los Center
Tue 12:41:44 PM 35.8981 -115.5000 56° Northeast 457 526 39,000  Level Los Center
Tue 12:42:58 PM 35.9803 -115.3439 57° Northeast 458 527 39,000  Level Los Center
Tue 12:44:01 PM 36.0639 -115.1911 56° Northeast 454 522 39,000  Level Los Center
Tue 12:45:03 PM 36.1286 -115.0575 59° Northeast 455 524 39,000  Level Los Center
Tue 12:46:05 PM 36.2042 -114.8956 60° Northeast 456 525 39,000  Level Los Center
Tue 12:47:07 PM 36.2661 -114.7603 60° Northeast 455 524 39,000  Level Los Center
Tue 12:48:09 PM 36.3294 -114.6236 60° Northeast 458 527 39,000  Level Los Center
Tue 12:49:11 PM 36.3931 -114.4858 60° Northeast 461 531 39,000  Level Los Center
Tue 12:50:14 PM 36.4694 -114.3197 60° Northeast 463 533 39,000  Level Los Center
Tue 12:51:16 PM 36.5269 -114.1956 60° Northeast 461 531 39,000  Level Los Center
Tue 12:52:18 PM 36.5894 -114.0558 61° Northeast 463 533 39,000  Level Los Center
Tue 12:53:20 PM 36.6656 -113.8883 60° Northeast 465 535 39,000  Level Los Center
Tue 12:54:22 PM 36.7283 -113.7492 61° Northeast 462 532 39,000  Level Los Center
Tue 12:55:24 PM 36.7922 -113.6081 60° Northeast 468 539 39,000  Level Los Center
Tue 12:56:26 PM 36.8550 -113.4664 61° Northeast 469 540 39,000  Level Los Center
Tue 12:57:28 PM 36.9186 -113.3242 61° Northeast 471 542 39,000  Level Los Center
Tue 12:58:31 PM 36.9939 -113.1539 61° Northeast 469 540 39,000  Level Los Center
Tue 12:59:33 PM 37.0575 -113.0108 61° Northeast 472 543 39,000  Level Los Center
Tue 01:00:35 PM 37.1206 -112.8678 61° Northeast 473 544 39,000  Level Los Center
Tue 01:01:37 PM 37.1831 -112.7233 61° Northeast 475 547 39,000  Level Los Center
Tue 01:02:39 PM 37.2467 -112.5792 61° Northeast 478 550 39,000  Level Los Center
Tue 01:03:41 PM 37.3231 -112.4061 61° Northeast 478 550 39,000  Level Los Center
Tue 01:04:43 PM 37.3867 -112.2606 61° Northeast 479 551 39,000  Level Los Center
Tue 01:05:45 PM 37.4508 -112.1142 61° Northeast 480 552 39,000  Level Los Center
Tue 01:06:47 PM 37.5150 -111.9683 61° Northeast 480 552 39,000  Level Los Center
Tue 01:07:50 PM 37.5892 -111.8281 56° Northeast 482 555 39,000  Level Los Center
Tue 01:08:09 PM 37.6169 -111.7708 58° Northeast 483 556 39,000  Level Denver Center
Tue 01:09:11 PM 37.6903 -111.6311 56° Northeast 480 552 39,000  Level Denver Center
Tue 01:10:01 PM 37.7494 -111.5189 56° Northeast 482 555 39,000  Level Salt Center
Tue 01:11:02 PM 37.8358 -111.3481 57° Northeast 481 554 39,000  Level Salt Center
Tue 01:12:03 PM 37.9083 -111.2053 57° Northeast 483 556 39,000  Level Salt Center
Tue 01:13:05 PM 37.9794 -111.0603 58° Northeast 484 557 39,000  Level Salt Center
Tue 01:14:06 PM 38.0569 -110.9058 57° Northeast 486 559 39,000  Level Salt Center
Tue 01:14:21 PM 38.0675 -110.8825 60° Northeast 484 557 39,000  Level Denver Center
Tue 01:15:07 PM 38.1269 -110.7678 57° Northeast 487 560 39,000  Level Salt Center
Tue 01:16:08 PM 38.1967 -110.6278 58° Northeast 489 563 39,000  Level Salt Center
Tue 01:16:25 PM 38.2175 -110.5797 61° Northeast 488 562 39,000 825 Level Denver Center
Tue 01:17:28 PM 38.2986 -110.4156 58° Northeast 490 564 40,100 912 Climbing Denver Center
Tue 01:18:30 PM 38.3656 -110.2772 58° Northeast 482 555 40,900 519 Climbing Denver Center
Tue 01:19:12 PM 38.4242 -110.1656 56° Northeast 479 551 41,000 97 Climbing Salt Center
Tue 01:19:32 PM 38.4453 -110.1178 61° Northeast 479 551 41,000  Level Denver Center
Tue 01:20:34 PM 38.5103 -109.9800 59° Northeast 476 548 41,000  Level Denver Center
Tue 01:21:36 PM 38.5758 -109.8114 64° Northeast 477 549 41,000  Level Denver Center
Tue 01:22:38 PM 38.6325 -109.6669 63° Northeast 477 549 41,000  Level Denver Center
Tue 01:23:40 PM 38.6889 -109.5169 64° Northeast 488 562 41,000  Level Denver Center
Tue 01:24:42 PM 38.7542 -109.3494 63° Northeast 473 544 41,000  Level Denver Center
Tue 01:25:44 PM 38.8103 -109.2075 63° Northeast 468 539 41,000  Level Denver Center
Tue 01:26:46 PM 38.8744 -109.0406 64° Northeast 471 542 41,000  Level Denver Center
Tue 01:27:48 PM 38.9306 -108.8928 64° Northeast 481 554 41,000  Level Denver Center
Tue 01:28:50 PM 38.9956 -108.7197 64° Northeast 485 558 41,000  Level Denver Center
Tue 01:29:52 PM 39.0522 -108.5689 64° Northeast 492 566 41,000  Level Denver Center
Tue 01:30:54 PM 39.1178 -108.3889 65° Northeast 500 575 41,000  Level Denver Center
Tue 01:31:56 PM 39.1758 -108.2339 64° Northeast 502 578 41,000  Level Denver Center
Tue 01:32:58 PM 39.2417 -108.0553 65° Northeast 499 574 41,000  Level Denver Center
Tue 01:33:59 PM 39.2983 -107.9017 64° Northeast 498 573 41,000  Level Denver Center
Tue 01:35:01 PM 39.3622 -107.7233 65° Northeast 491 565 41,000  Level Denver Center
Tue 01:36:03 PM 39.4178 -107.5694 65° Northeast 495 570 41,000  Level Denver Center
Tue 01:37:05 PM 39.4811 -107.3914 65° Northeast 492 566 41,000  Level Denver Center
Tue 01:38:07 PM 39.5378 -107.2356 65° Northeast 498 573 41,000  Level Denver Center
Tue 01:39:09 PM 39.6031 -107.0544 65° Northeast 496 571 41,000  Level Denver Center
Tue 01:40:11 PM 39.6581 -106.8981 65° Northeast 497 572 41,000  Level Denver Center
Tue 01:41:13 PM 39.7231 -106.7178 65° Northeast 497 572 41,000  Level Denver Center
Tue 01:42:15 PM 39.7803 -106.5536 66° East 497 572 41,000  Level Denver Center
Tue 01:43:17 PM 39.8322 -106.3856 68° East 498 573 41,000  Level Denver Center
Tue 01:44:19 PM 39.8808 -106.2169 69° East 496 571 41,000  Level Denver Center
Tue 01:45:21 PM 39.9292 -106.0458 70° East 502 578 41,000  Level Denver Center
Tue 01:46:23 PM 39.9794 -105.8758 69° East 502 578 41,000  Level Denver Center
Tue 01:47:25 PM 40.0339 -105.6736 71° East 505 581 41,000  Level Denver Center
Tue 01:48:27 PM 40.0842 -105.5028 69° East 505 581 41,000  Level Denver Center
Tue 01:49:29 PM 40.1353 -105.3200 70° East 500 575 41,000  Level Denver Center
Tue 01:50:31 PM 40.1847 -105.1489 69° East 503 579 41,000  Level Denver Center
Tue 01:51:33 PM 40.2319 -104.9772 70° East 502 578 41,000  Level Denver Center
Tue 01:52:35 PM 40.2842 -104.7917 70° East 504 580 41,000  Level Denver Center
Tue 01:53:37 PM 40.3317 -104.6189 70° East 504 580 41,000  Level Denver Center
Tue 01:54:39 PM 40.3822 -104.4322 70° East 504 580 41,000  Level Denver Center
Tue 01:55:40 PM 40.4286 -104.2608 70° East 501 577 41,000  Level Denver Center
Tue 01:56:42 PM 40.4756 -104.0900 70° East 499 574 41,000  Level Denver Center
Tue 01:57:44 PM 40.5247 -103.9056 71° East 493 567 41,000  Level Denver Center
Tue 01:58:46 PM 40.5664 -103.7392 72° East 501 577 41,000  Level Denver Center
Tue 01:59:48 PM 40.6167 -103.5436 71° East 506 582 41,000  Level Denver Center
Tue 02:00:50 PM 40.6592 -103.3767 71° East 505 581 41,000  Level Denver Center
Tue 02:01:52 PM 40.7081 -103.1828 72° East 503 579 41,000  Level Denver Center
Tue 02:02:54 PM 40.7508 -103.0164 71° East 502 578 41,000  Level Denver Center
Tue 02:03:56 PM 40.7981 -102.8297 71° East 502 578 41,000  Level Denver Center
Tue 02:04:58 PM 40.8392 -102.6625 72° East 502 578 41,000  Level Denver Center
Tue 02:06:00 PM 40.8875 -102.4664 72° East 502 578 41,000  Level Denver Center
Tue 02:07:02 PM 40.9275 -102.2981 72° East 502 578 41,000  Level Denver Center
Tue 02:08:04 PM 40.9758 -102.1033 72° East 500 575 41,000  Level Denver Center
Tue 02:09:06 PM 41.0172 -101.9336 72° East 504 580 41,000  Level Denver Center
Tue 02:10:08 PM 41.0703 -101.7406 70° East 500 575 41,000  Level Denver Center
Tue 02:11:10 PM 41.1142 -101.5731 71° East 501 577 41,000  Level Denver Center
Tue 02:12:12 PM 41.1592 -101.4050 70° East 502 578 41,000  Level Denver Center
Tue 02:13:13 PM 41.2100 -101.2111 71° East 498 573 41,000  Level Denver Center
Tue 02:14:15 PM 41.2547 -101.0433 70° East 499 574 41,000  Level Denver Center
Tue 02:15:17 PM 41.3058 -100.8467 71° East 500 575 41,000  Level Denver Center
Tue 02:16:19 PM 41.3503 -100.6775 71° East 501 577 41,000  Level Denver Center
Tue 02:17:21 PM 41.3931 -100.5100 71° East 498 573 41,000  Level Denver Center
Tue 02:18:23 PM 41.4419 -100.3128 72° East 500 575 41,000  Level Denver Center
Tue 02:19:25 PM 41.4842 -100.1450 71° East 498 573 41,000  Level Denver Center
Tue 02:20:26 PM 41.5336 -99.9489 71° East 499 574 41,000  Level Denver Center
Tue 02:21:28 PM 41.5761 -99.7800 71° East 500 575 41,000  Level Denver Center
Tue 02:22:30 PM 41.6172 -99.6100 72° East 500 575 41,000  Level Denver Center
Tue 02:23:32 PM 41.6611 -99.4319 72° East 501 577 41,000  Level Denver Center
Tue 02:24:34 PM 41.7131 -99.2178 72° East 503 579 41,000  Level Denver Center
Tue 02:25:15 PM 41.7389 -99.1114 72° East 501 577 41,000  Level Minneapolis Center
Tue 02:26:17 PM 41.7814 -98.9322 72° East 502 578 41,000  Level Minneapolis Center
Tue 02:27:19 PM 41.8236 -98.7528 72° East 502 578 41,000  Level Minneapolis Center
Tue 02:28:20 PM 41.8667 -98.5725 72° East 504 580 41,000  Level Minneapolis Center
Tue 02:29:22 PM 41.9097 -98.3936 72° East 504 580 41,000  Level Minneapolis Center
Tue 02:30:24 PM 41.9517 -98.2131 73° East 503 579 41,000  Level Minneapolis Center
Tue 02:31:26 PM 41.9953 -98.0250 73° East 501 577 41,000 -49 Level Minneapolis Center
Tue 02:32:27 PM 42.0297 -97.8439 76° East 499 574 40,900 -585 Descending Minneapolis Center
Tue 02:33:29 PM 42.0567 -97.6231 81° East 499 574 39,800 -919 Descending Minneapolis Center
Tue 02:34:31 PM 42.0711 -97.4378 84° East 497 572 39,000 -387 Descending Minneapolis Center
Tue 02:35:33 PM 42.0858 -97.2517 84° East 498 573 39,000  Level Minneapolis Center
Tue 02:36:35 PM 42.0992 -97.0689 84° East 493 567 39,000  Level Minneapolis Center
Tue 02:37:48 PM 42.1125 -96.8842 84° East 494 568 39,000  Level Minneapolis Center
Tue 02:38:51 PM 42.1286 -96.6653 84° East 490 564 39,000  Level Minneapolis Center
Tue 02:39:52 PM 42.1422 -96.4817 84° East 491 565 39,000  Level Minneapolis Center
Tue 02:40:54 PM 42.1547 -96.2983 85° East 490 564 39,000  Level Minneapolis Center
Tue 02:41:56 PM 42.1700 -96.0783 85° East 488 562 39,000  Level Minneapolis Center
Tue 02:42:58 PM 42.1825 -95.8953 85° East 487 560 39,000  Level Minneapolis Center
Tue 02:44:00 PM 42.1931 -95.7119 85° East 488 562 39,000  Level Minneapolis Center
Tue 02:45:01 PM 42.2050 -95.5292 85° East 487 560 39,000  Level Minneapolis Center
Tue 02:46:03 PM 42.2167 -95.3456 85° East 489 563 39,000  Level Minneapolis Center
Tue 02:47:05 PM 42.2275 -95.1617 85° East 491 565 39,000  Level Minneapolis Center
Tue 02:48:07 PM 42.2383 -94.9789 85° East 489 563 39,000  Level Minneapolis Center
Tue 02:49:08 PM 42.2472 -94.8322 85° East 490 564 39,000  Level Minneapolis Center
Tue 02:50:22 PM 42.2594 -94.6133 86° East 488 562 39,000  Level Minneapolis Center
Tue 02:51:24 PM 42.2717 -94.3556 86° East 489 563 39,000  Level Minneapolis Center
Tue 02:52:26 PM 42.2800 -94.1944 86° East 489 563 39,000  Level Minneapolis Center
Tue 02:53:28 PM 42.2881 -94.0139 86° East 487 560 39,000  Level Minneapolis Center
Tue 02:54:29 PM 42.2981 -93.7992 86° East 484 557 39,000  Level Minneapolis Center
Tue 02:55:31 PM 42.3050 -93.6569 86° East 481 554 39,000  Level Minneapolis Center
Tue 02:56:33 PM 42.3150 -93.4442 86° East 479 551 39,000  Level Minneapolis Center
Tue 02:57:34 PM 42.3231 -93.2653 86° East 479 551 39,000  Level Minneapolis Center
Tue 02:58:36 PM 42.3303 -93.0883 87° East 478 550 39,000  Level Minneapolis Center
Tue 02:59:37 PM 42.3394 -92.8775 87° East 475 547 39,000  Level Minneapolis Center
Tue 03:00:39 PM 42.3467 -92.7014 87° East 476 548 39,000  Level Minneapolis Center
Tue 03:01:40 PM 42.3519 -92.5275 88° East 472 543 39,000  Level Minneapolis Center
Tue 03:02:42 PM 42.3586 -92.3503 87° East 475 547 39,000  Level Minneapolis Center
Tue 03:03:43 PM 42.3642 -92.1753 87° East 474 545 39,000  Level Minneapolis Center
Tue 03:04:40 PM 42.3692 -91.9964 88° East 477 549 39,000  Level Chicago Center
Tue 03:05:42 PM 42.3742 -91.8231 88° East 472 543 39,000  Level Chicago Center
Tue 03:06:44 PM 42.3789 -91.6486 88° East 474 545 39,000 -48 Level Chicago Center
Tue 03:07:46 PM 42.3847 -91.4406 88° East 472 543 38,900 -387 Descending Chicago Center
Tue 03:08:48 PM 42.3883 -91.2681 88° East 469 540 38,200 -823 Descending Chicago Center
Tue 03:09:50 PM 42.3914 -91.0950 89° East 468 539 37,200 -1,344 Descending Chicago Center
Tue 03:10:53 PM 42.3950 -90.9186 88° East 474 545 35,400 -1,887 Descending Chicago Center
Tue 03:11:54 PM 42.4006 -90.7039 88° East 484 557 33,300 -1,951 Descending Chicago Center
Tue 03:12:56 PM 42.4183 -90.5219 82° East 491 565 31,400 -1,887 Descending Chicago Center
Tue 03:13:58 PM 42.4364 -90.3361 82° East 501 577 29,400 -1,887 Descending Chicago Center
Tue 03:15:00 PM 42.4567 -90.1536 81° East 496 571 27,500 -1,790 Descending Chicago Center
Tue 03:16:02 PM 42.4681 -89.9411 86° East 477 549 25,700 -1,500 Descending Chicago Center
Tue 03:17:04 PM 42.4661 -89.7600 91° East 465 535 24,400 -1,694 Descending Chicago Center
Tue 03:18:06 PM 42.4642 -89.5906 91° East 454 522 22,200 -2,129 Descending Chicago Center
Tue 03:19:08 PM 42.4636 -89.4264 90° East 440 506 20,000 -2,129 Descending Chicago Center
Tue 03:20:10 PM 42.4631 -89.2683 90° East 423 487 17,800 -2,146 Descending Chicago Center
Tue 03:21:11 PM 42.4608 -89.1144 91° East 412 474 15,600 -2,293 Descending Chicago Center
Tue 03:22:13 PM 42.4481 -88.9431 96° East 394 453 13,100 -2,323 Descending Chicago Center
Tue 03:23:15 PM 42.4239 -88.8050 103° East 380 437 10,800 -1,452 Descending Chicago Center
Tue 03:24:17 PM 42.4028 -88.6714 102° East 369 425 10,100 -532 Descending Chicago Center
Tue 03:25:19 PM 42.3850 -88.5608 102° East 318 366 9,700 -677 Descending Chicago Center
Tue 03:26:21 PM 42.3622 -88.4556 106° East 299 344 8,700 -1,161 Descending Chicago Center
Tue 03:27:23 PM 42.3294 -88.3397 111° Southeast 299 344 7,300 -1,306 Descending Chicago Center
Tue 03:28:25 PM 42.2806 -88.2606 130° Southeast 283 326 6,000 -1,065 Descending Chicago Center
Tue 03:29:27 PM 42.2258 -88.1992 140° Southeast 264 304 5,100 -484 Descending Chicago Center
Tue 03:30:29 PM 42.1789 -88.1458 140° Southeast 234 269 5,000 -293 Descending Chicago Center
Tue 03:31:30 PM 42.1325 -88.0944 141° Southeast 220 253 4,500 -492 Descending Chicago Center

Login

Don't have an account? Register now (free) for customized features, flight alerts, and more!